createdAt,value
2022-10-17T00:01:06.832Z,3.85
2022-10-17T00:03:37.880Z,3.86
2022-10-17T00:06:13.287Z,3.91
2022-10-17T00:08:41.905Z,3.91
2022-10-17T00:11:15.502Z,3.98
2022-10-17T00:13:44.179Z,3.98
2022-10-17T00:16:14.251Z,3.94
2022-10-17T00:18:43.514Z,3.94
2022-10-17T00:21:16.916Z,4.01
2022-10-17T00:23:50.542Z,4.08
2022-10-17T00:26:21.647Z,4.00
2022-10-17T00:28:52.976Z,3.98
2022-10-17T00:31:25.474Z,3.95
2022-10-17T00:33:55.097Z,3.90
2022-10-17T00:36:24.912Z,3.76
2022-10-17T00:38:54.824Z,3.71
2022-10-17T00:41:26.673Z,3.64
2022-10-17T00:43:58.535Z,3.68
2022-10-17T00:46:27.886Z,3.52
2022-10-17T00:48:57.214Z,3.59
2022-10-17T00:51:30.739Z,3.70
2022-10-17T00:53:59.261Z,3.83
2022-10-17T00:56:28.523Z,3.99
2022-10-17T00:58:57.139Z,4.06
2022-10-17T01:01:24.919Z,4.14
2022-10-17T01:03:52.622Z,4.11
2022-10-17T01:06:20.381Z,4.07
2022-10-17T01:08:48.128Z,4.00
2022-10-17T01:11:31.617Z,3.97
2022-10-17T01:14:06.285Z,3.97
2022-10-17T01:16:43.074Z,3.98
2022-10-17T01:19:42.067Z,3.94
2022-10-17T01:22:15.107Z,3.93
2022-10-17T01:24:56.106Z,3.86
2022-10-17T01:27:38.371Z,3.86
2022-10-17T01:30:42.613Z,3.78
2022-10-17T01:33:18.137Z,3.84
2022-10-17T01:35:53.278Z,3.81
2022-10-17T01:38:24.472Z,3.71
2022-10-17T01:41:00.583Z,3.66
2022-10-17T01:43:35.566Z,3.67
2022-10-17T01:46:12.236Z,3.59
2022-10-17T01:48:45.036Z,3.65
2022-10-17T01:51:17.977Z,3.66
2022-10-17T01:53:52.401Z,3.59
2022-10-17T01:56:22.351Z,3.61
2022-10-17T01:58:53.963Z,3.59
2022-10-17T02:01:29.266Z,3.71
2022-10-17T02:03:59.880Z,3.75
2022-10-17T02:06:27.982Z,3.72
2022-10-17T02:08:55.666Z,3.62
2022-10-17T02:11:26.263Z,3.57
2022-10-17T02:16:56.722Z,3.65
2022-10-17T02:19:48.531Z,3.49
2022-10-17T02:22:20.700Z,3.33
2022-10-17T02:24:52.598Z,3.07
2022-10-17T02:27:24.989Z,2.96
2022-10-17T02:29:59.041Z,3.02
2022-10-17T02:32:34.568Z,3.15
2022-10-17T02:35:05.827Z,3.27
2022-10-17T02:37:35.095Z,3.30
2022-10-17T02:40:07.005Z,3.32
2022-10-17T02:42:35.910Z,3.34
2022-10-17T02:45:04.958Z,3.30
2022-10-17T02:47:39.447Z,3.29
2022-10-17T02:50:07.781Z,3.25
2022-10-17T02:52:43.922Z,3.32
2022-10-17T02:55:17.312Z,3.22
2022-10-17T02:57:48.786Z,3.16
2022-10-17T03:00:17.738Z,3.11
2022-10-17T03:02:49.309Z,3.16
2022-10-17T03:05:17.877Z,3.16
2022-10-17T03:07:45.599Z,2.96
2022-10-17T03:10:13.596Z,2.66
2022-10-17T03:12:43.383Z,2.76
2022-10-17T03:15:13.172Z,2.86
2022-10-17T03:17:40.814Z,2.86
2022-10-17T03:20:10.670Z,2.92
2022-10-17T03:22:38.451Z,2.98
2022-10-17T03:25:06.666Z,2.83
2022-10-17T03:27:34.220Z,2.78
2022-10-17T03:30:02.240Z,2.74
2022-10-17T03:32:30.109Z,2.74
2022-10-17T03:34:57.624Z,2.76
2022-10-17T03:37:26.888Z,2.71
2022-10-17T03:39:54.599Z,2.57
2022-10-17T03:42:22.251Z,2.52
2022-10-17T03:44:50.786Z,2.54
2022-10-17T03:47:18.353Z,2.52
2022-10-17T03:49:47.187Z,2.49
2022-10-17T03:52:15.246Z,2.47
2022-10-17T03:54:44.285Z,2.47
2022-10-17T03:57:11.865Z,2.44
2022-10-17T03:59:39.832Z,2.56
2022-10-17T04:02:07.376Z,2.55
2022-10-17T04:04:35.554Z,2.56
2022-10-17T04:07:03.552Z,2.60
2022-10-17T04:09:33.247Z,2.63
2022-10-17T04:12:02.472Z,2.65
2022-10-17T04:14:30.267Z,2.56
2022-10-17T04:16:58.584Z,2.61
2022-10-17T04:19:26.489Z,2.69
2022-10-17T04:21:54.340Z,2.67
2022-10-17T04:24:22.416Z,2.75
2022-10-17T04:26:52.844Z,2.76
2022-10-17T04:29:24.452Z,2.81
2022-10-17T04:31:52.460Z,2.86
2022-10-17T04:34:20.073Z,2.92
2022-10-17T04:36:48.246Z,2.97
2022-10-17T04:39:15.778Z,3.02
2022-10-17T04:41:43.369Z,3.01
2022-10-17T04:44:11.253Z,3.07
2022-10-17T04:46:40.518Z,3.10
2022-10-17T04:49:08.525Z,3.15
2022-10-17T04:51:36.221Z,3.15
2022-10-17T04:54:05.680Z,3.15
2022-10-17T04:56:34.862Z,3.14
2022-10-17T04:59:03.039Z,3.07
2022-10-17T05:01:30.825Z,3.02
2022-10-17T05:03:59.974Z,2.97
2022-10-17T05:06:27.720Z,2.92
2022-10-17T05:08:55.490Z,3.01
2022-10-17T05:11:24.612Z,3.08
2022-10-17T05:13:56.914Z,3.10
2022-10-17T05:16:25.348Z,3.15
2022-10-17T05:18:56.096Z,3.19
2022-10-17T05:21:27.207Z,3.30
2022-10-17T05:23:54.948Z,3.51
2022-10-17T05:26:23.248Z,3.71
2022-10-17T05:28:52.149Z,3.93
2022-10-17T05:31:19.751Z,4.06
2022-10-17T05:33:49.475Z,4.14
2022-10-17T05:36:17.300Z,4.29
2022-10-17T05:38:49.378Z,4.45
2022-10-17T05:41:18.695Z,4.71
2022-10-17T05:43:47.711Z,4.95
2022-10-17T05:46:15.551Z,5.14
2022-10-17T05:48:43.153Z,5.34
2022-10-17T05:51:11.184Z,5.46
2022-10-17T05:53:40.911Z,5.63
2022-10-17T05:56:11.926Z,5.79
2022-10-17T05:59:00.674Z,5.96
2022-10-17T06:01:29.275Z,6.14
2022-10-17T06:03:57.102Z,6.26
2022-10-17T06:06:26.879Z,6.40
2022-10-17T06:08:54.722Z,6.58
2022-10-17T06:11:23.757Z,6.71
2022-10-17T06:13:51.313Z,6.88
2022-10-17T06:16:19.114Z,6.98
2022-10-17T06:21:23.710Z,7.21
2022-10-17T06:23:52.096Z,7.30
2022-10-17T06:26:20.132Z,7.48
2022-10-17T06:28:49.492Z,7.62
2022-10-17T06:31:17.621Z,7.69
2022-10-17T06:33:45.305Z,7.88
2022-10-17T06:36:17.854Z,8.02
2022-10-17T06:38:46.387Z,8.12
2022-10-17T06:41:16.190Z,8.25
2022-10-17T06:43:46.768Z,8.37
2022-10-17T06:46:17.140Z,8.47
2022-10-17T06:48:45.214Z,8.58
2022-10-17T06:51:13.459Z,8.77
2022-10-17T06:53:42.235Z,8.89
2022-10-17T06:56:10.589Z,9.02
2022-10-17T06:58:40.155Z,9.12
2022-10-17T07:01:09.896Z,9.22
2022-10-17T07:03:40.212Z,9.27
2022-10-17T07:06:08.266Z,9.43
2022-10-17T07:08:36.318Z,9.53
2022-10-17T07:11:10.474Z,9.62
2022-10-17T07:13:39.302Z,9.77
2022-10-17T07:16:07.534Z,9.89
2022-10-17T07:18:36.192Z,10.04
2022-10-17T07:21:05.963Z,10.20
2022-10-17T07:23:35.573Z,10.29
2022-10-17T07:26:05.988Z,10.40
2022-10-17T07:28:34.896Z,10.53
2022-10-17T07:31:06.957Z,10.64
2022-10-17T07:33:37.396Z,10.77
2022-10-17T07:36:07.369Z,10.95
2022-10-17T07:38:36.339Z,11.03
2022-10-17T07:41:05.982Z,11.16
2022-10-17T07:43:35.585Z,11.25
2022-10-17T07:46:05.317Z,11.36
2022-10-17T07:48:33.025Z,11.43
2022-10-17T07:51:03.926Z,11.58
2022-10-17T07:53:34.862Z,11.63
2022-10-17T07:56:05.011Z,11.74
2022-10-17T07:58:33.132Z,11.90
2022-10-17T08:03:30.582Z,12.07
2022-10-17T08:05:58.779Z,12.22
2022-10-17T08:08:27.443Z,12.31
2022-10-17T08:11:03.000Z,12.37
2022-10-17T08:13:31.895Z,12.38
2022-10-17T08:16:00.516Z,12.50
2022-10-17T08:18:28.600Z,12.58
2022-10-17T08:21:00.575Z,12.64
2022-10-17T08:23:29.136Z,12.85
2022-10-17T08:26:01.351Z,12.94
2022-10-17T08:28:29.675Z,12.95
2022-10-17T08:31:03.298Z,13.00
2022-10-17T08:33:31.146Z,13.08
2022-10-17T08:35:59.508Z,13.14
2022-10-17T08:38:34.701Z,13.10
2022-10-17T08:41:11.466Z,13.21
2022-10-17T08:44:02.250Z,13.27
2022-10-17T08:46:32.747Z,13.36
2022-10-17T08:49:05.078Z,13.37
2022-10-17T08:51:43.856Z,13.45
2022-10-17T08:54:17.870Z,13.46
2022-10-17T08:56:50.871Z,13.48
2022-10-17T08:59:23.210Z,13.57
2022-10-17T09:01:58.862Z,13.63
2022-10-17T09:04:58.383Z,13.66
2022-10-17T09:07:37.214Z,13.82
2022-10-17T09:10:13.814Z,13.94
2022-10-17T09:12:51.733Z,13.92
2022-10-17T09:15:52.718Z,14.03
2022-10-17T09:18:26.103Z,14.02
2022-10-17T09:20:55.831Z,14.00
2022-10-17T09:23:27.921Z,14.02
2022-10-17T09:25:58.392Z,14.09
2022-10-17T09:28:32.495Z,14.17
2022-10-17T09:31:03.179Z,14.29
2022-10-17T09:33:53.422Z,14.34
2022-10-17T09:36:24.598Z,14.34
2022-10-17T09:38:54.798Z,14.43
2022-10-17T09:41:44.175Z,14.41
2022-10-17T09:44:18.391Z,14.42
2022-10-17T09:47:02.009Z,14.46
2022-10-17T09:49:35.771Z,14.52
2022-10-17T09:52:06.432Z,14.41
2022-10-17T09:54:42.379Z,14.40
2022-10-17T09:57:11.889Z,14.59
2022-10-17T09:59:44.390Z,14.56
2022-10-17T10:02:20.742Z,14.51
2022-10-17T10:05:05.555Z,14.57
2022-10-17T10:07:35.798Z,14.72
2022-10-17T10:10:07.631Z,14.90
2022-10-17T10:12:39.713Z,14.86
2022-10-17T10:15:34.709Z,14.81
2022-10-17T10:18:02.625Z,14.82
2022-10-17T10:20:34.278Z,14.87
2022-10-17T10:23:17.489Z,14.82
2022-10-17T10:25:58.106Z,14.87
2022-10-17T10:28:29.682Z,14.90
2022-10-17T10:31:01.499Z,14.94
2022-10-17T10:33:30.775Z,14.98
2022-10-17T10:36:00.228Z,14.98
2022-10-17T10:38:30.205Z,14.95
2022-10-17T10:41:03.603Z,14.96
2022-10-17T10:43:36.652Z,15.01
2022-10-17T10:46:06.910Z,15.19
2022-10-17T10:48:36.844Z,15.22
2022-10-17T10:51:08.133Z,15.19
2022-10-17T10:53:44.472Z,15.24
2022-10-17T10:56:18.406Z,15.30
2022-10-17T10:58:55.497Z,15.26
2022-10-17T11:01:31.556Z,15.29
2022-10-17T11:04:13.660Z,15.35
2022-10-17T11:06:44.360Z,15.37
2022-10-17T11:09:23.678Z,15.43
2022-10-17T11:11:56.324Z,15.41
2022-10-17T11:14:34.865Z,15.42
2022-10-17T11:17:12.611Z,15.42
2022-10-17T11:19:45.916Z,15.41
2022-10-17T11:22:17.047Z,15.47
2022-10-17T11:24:53.171Z,15.49
2022-10-17T11:27:21.818Z,15.47
2022-10-17T11:29:49.565Z,15.41
2022-10-17T11:32:24.100Z,15.31
2022-10-17T11:34:55.720Z,15.29
2022-10-17T11:37:26.973Z,15.32
2022-10-17T11:40:00.105Z,15.33
2022-10-17T11:42:33.131Z,15.31
2022-10-17T11:45:06.182Z,15.36
2022-10-17T11:47:41.623Z,15.34
2022-10-17T11:53:13.273Z,15.32
2022-10-17T11:55:42.298Z,15.31
2022-10-17T11:58:30.305Z,15.28
2022-10-17T12:01:07.081Z,15.21
2022-10-17T12:03:51.885Z,15.18
2022-10-17T12:06:35.827Z,15.20
2022-10-17T12:09:12.677Z,15.13
2022-10-17T12:11:49.058Z,15.07
2022-10-17T12:14:42.336Z,15.13
2022-10-17T12:17:28.927Z,15.12
2022-10-17T12:20:25.459Z,15.09
2022-10-17T12:22:55.034Z,15.03
2022-10-17T12:25:24.651Z,15.08
2022-10-17T12:28:14.157Z,15.08
2022-10-17T12:30:58.182Z,15.04
2022-10-17T12:33:38.166Z,14.98
2022-10-17T12:36:45.363Z,14.95
2022-10-17T12:39:48.536Z,14.95
2022-10-17T12:42:48.443Z,14.95
2022-10-17T12:45:46.577Z,14.90
2022-10-17T12:48:34.208Z,14.96
2022-10-17T12:53:59.537Z,14.84
2022-10-17T12:56:37.507Z,14.80
2022-10-17T12:59:13.832Z,14.72
2022-10-17T13:01:46.346Z,14.71
2022-10-17T13:04:14.560Z,14.67
2022-10-17T13:06:48.375Z,14.64
2022-10-17T13:09:23.007Z,14.52
2022-10-17T13:11:52.759Z,14.56
2022-10-17T13:14:22.926Z,14.54
2022-10-17T13:16:53.090Z,14.62
2022-10-17T13:19:23.771Z,14.61
2022-10-17T13:21:53.962Z,14.62
2022-10-17T13:24:28.829Z,14.64
2022-10-17T13:26:57.363Z,14.67
2022-10-17T13:29:26.699Z,14.67
2022-10-17T13:31:56.449Z,14.60
2022-10-17T13:34:26.315Z,14.59
2022-10-17T13:36:57.482Z,14.59
2022-10-17T13:39:44.756Z,14.48
2022-10-17T13:42:22.858Z,14.39
2022-10-17T13:44:50.925Z,14.39
2022-10-17T13:47:23.476Z,14.37
2022-10-17T13:49:55.274Z,14.32
2022-10-17T13:52:28.323Z,14.25
2022-10-17T13:55:07.637Z,14.22
2022-10-17T13:57:35.379Z,14.32
2022-10-17T14:00:10.039Z,14.35
2022-10-17T14:02:41.466Z,14.29
2022-10-17T14:05:17.245Z,14.25
2022-10-17T14:10:44.783Z,14.19
2022-10-17T14:13:22.155Z,14.15
2022-10-17T14:15:51.471Z,14.11
2022-10-17T14:18:24.109Z,13.94
2022-10-17T14:21:34.312Z,13.67
2022-10-17T14:23:44.147Z,13.57
2022-10-17T14:26:15.363Z,13.37
2022-10-17T14:28:45.674Z,13.35
2022-10-17T14:31:22.284Z,13.25
2022-10-17T14:33:51.408Z,13.06
2022-10-17T14:36:20.452Z,12.99
2022-10-17T14:38:52.432Z,12.96
2022-10-17T14:41:42.002Z,12.91
2022-10-17T14:44:19.291Z,12.81
2022-10-17T14:46:51.019Z,12.72
2022-10-17T14:49:25.327Z,12.45
2022-10-17T14:52:27.428Z,12.28
2022-10-17T14:54:57.610Z,12.07
2022-10-17T14:57:43.145Z,11.92
2022-10-17T15:00:15.169Z,11.76
2022-10-17T15:02:43.469Z,11.67
2022-10-17T15:05:13.584Z,11.57
2022-10-17T15:07:42.620Z,11.35
2022-10-17T15:10:31.000Z,11.16
2022-10-17T15:13:15.849Z,10.98
2022-10-17T15:15:49.096Z,10.80
2022-10-17T15:18:18.343Z,10.74
2022-10-17T15:20:46.467Z,10.57
2022-10-17T15:23:14.049Z,10.32
2022-10-17T15:25:45.027Z,10.24
2022-10-17T15:28:13.518Z,10.09
2022-10-17T15:30:42.075Z,9.76
2022-10-17T15:33:09.817Z,9.67
2022-10-17T15:35:37.611Z,9.57
2022-10-17T15:38:07.226Z,9.51
2022-10-17T15:40:35.235Z,9.42
2022-10-17T15:43:04.381Z,9.26
2022-10-17T15:45:33.650Z,9.09
2022-10-17T15:48:06.112Z,9.00
2022-10-17T15:50:33.642Z,8.73
2022-10-17T15:53:01.247Z,8.71
2022-10-17T15:55:29.178Z,8.47
2022-10-17T15:57:57.081Z,8.45
2022-10-17T16:00:26.148Z,8.55
2022-10-17T16:02:54.045Z,8.22
2022-10-17T16:05:24.097Z,8.22
2022-10-17T16:07:53.308Z,8.17
2022-10-17T16:10:22.294Z,8.07
2022-10-17T16:12:50.396Z,8.04
2022-10-17T16:15:23.744Z,8.00
2022-10-17T16:17:53.893Z,7.92
2022-10-17T16:20:23.164Z,7.89
2022-10-17T16:22:51.969Z,7.68
2022-10-17T16:25:23.710Z,7.57
2022-10-17T16:27:54.393Z,7.58
2022-10-17T16:30:23.589Z,7.53
2022-10-17T16:32:54.211Z,7.42
2022-10-17T16:35:23.962Z,7.31
2022-10-17T16:37:54.014Z,7.07
2022-10-17T16:40:21.968Z,7.01
2022-10-17T16:42:49.630Z,7.12
2022-10-17T16:45:19.823Z,7.09
2022-10-17T16:47:47.755Z,6.94
2022-10-17T16:50:18.101Z,6.83
2022-10-17T16:52:46.066Z,6.81
2022-10-17T16:55:13.621Z,6.80
2022-10-17T17:00:13.115Z,6.55
2022-10-17T17:02:41.335Z,6.42
2022-10-17T17:05:09.947Z,6.34
2022-10-17T17:07:39.556Z,6.31
2022-10-17T17:10:07.960Z,6.35
2022-10-17T17:12:37.058Z,6.39
2022-10-17T17:15:05.622Z,6.42
2022-10-17T17:17:48.793Z,6.40
2022-10-17T17:20:18.176Z,6.34
2022-10-17T17:22:47.752Z,6.00
2022-10-17T17:25:15.702Z,6.01
2022-10-17T17:27:43.420Z,6.17
2022-10-17T17:30:12.076Z,6.04
2022-10-17T17:32:40.156Z,6.06
2022-10-17T17:35:09.184Z,6.14
2022-10-17T17:37:37.701Z,6.01
2022-10-17T17:40:08.526Z,5.66
2022-10-17T17:42:36.769Z,5.72
2022-10-17T17:45:05.452Z,5.80
2022-10-17T17:47:33.533Z,5.87
2022-10-17T17:50:03.640Z,5.73
2022-10-17T17:52:31.904Z,5.68
2022-10-17T17:54:59.711Z,5.64
2022-10-17T17:57:30.740Z,5.54
2022-10-17T17:59:58.354Z,5.46
2022-10-17T18:02:26.013Z,5.44
2022-10-17T18:04:54.321Z,5.40
2022-10-17T18:07:22.284Z,5.42
2022-10-17T18:09:52.647Z,5.45
2022-10-17T18:12:21.117Z,5.23
2022-10-17T18:14:50.119Z,5.05
2022-10-17T18:17:18.602Z,4.98
2022-10-17T18:19:47.210Z,5.08
2022-10-17T18:22:15.300Z,5.16
2022-10-17T18:24:43.299Z,5.15
2022-10-17T18:27:11.038Z,5.00
2022-10-17T18:29:38.802Z,4.98
2022-10-17T18:32:08.066Z,4.91
2022-10-17T18:34:36.101Z,4.94
2022-10-17T18:37:03.834Z,4.74
2022-10-17T18:39:31.579Z,4.77
2022-10-17T18:41:59.305Z,4.57
2022-10-17T18:44:27.047Z,4.56
2022-10-17T18:46:55.751Z,4.58
2022-10-17T18:49:26.597Z,4.61
2022-10-17T18:51:54.210Z,4.57
2022-10-17T18:54:22.240Z,4.64
2022-10-17T18:56:52.385Z,4.60
2022-10-17T18:59:20.992Z,4.71
2022-10-17T19:01:49.003Z,4.63
2022-10-17T19:04:18.134Z,4.46
2022-10-17T19:06:47.114Z,4.33
2022-10-17T19:09:15.025Z,4.48
2022-10-17T19:11:43.307Z,4.55
2022-10-17T19:14:15.079Z,4.51
2022-10-17T19:16:49.168Z,4.46
2022-10-17T19:19:19.928Z,4.55
2022-10-17T19:21:51.544Z,4.58
2022-10-17T19:24:20.808Z,4.52
2022-10-17T19:26:50.192Z,4.45
2022-10-17T19:29:18.560Z,4.44
2022-10-17T19:31:47.764Z,4.34
2022-10-17T19:34:17.280Z,4.27
2022-10-17T19:36:46.604Z,4.08
2022-10-17T19:39:17.161Z,4.06
2022-10-17T19:41:48.148Z,4.05
2022-10-17T19:44:16.205Z,4.05
2022-10-17T19:46:44.359Z,4.07
2022-10-17T19:49:13.404Z,4.14
2022-10-17T19:51:41.300Z,4.13
2022-10-17T19:54:09.443Z,4.05
2022-10-17T19:56:41.016Z,3.97
2022-10-17T19:59:11.534Z,4.02
2022-10-17T20:01:39.998Z,3.95
2022-10-17T20:04:09.133Z,3.75
2022-10-17T20:06:37.744Z,3.75
2022-10-17T20:09:07.337Z,3.71
2022-10-17T20:11:38.098Z,3.65
2022-10-17T20:14:07.359Z,3.53
2022-10-17T20:16:36.398Z,3.51
2022-10-17T20:19:05.898Z,3.49
2022-10-17T20:21:34.211Z,3.39
2022-10-17T20:24:04.214Z,3.32
2022-10-17T20:26:38.026Z,3.30
2022-10-17T20:29:11.708Z,3.39
2022-10-17T20:31:41.755Z,3.50
2022-10-17T20:34:11.803Z,3.46
2022-10-17T20:36:41.616Z,3.40
2022-10-17T20:39:11.432Z,3.35
2022-10-17T20:41:40.384Z,3.22
2022-10-17T20:44:09.923Z,3.41
2022-10-17T20:46:44.831Z,3.39
2022-10-17T20:49:18.016Z,3.32
2022-10-17T20:51:46.091Z,3.35
2022-10-17T20:54:13.695Z,3.37
2022-10-17T20:56:41.519Z,3.26
2022-10-17T20:59:14.677Z,3.25
2022-10-17T21:01:42.846Z,3.32
2022-10-17T21:04:40.318Z,3.33
2022-10-17T21:06:58.544Z,3.32
2022-10-17T21:09:26.380Z,3.34
2022-10-17T21:11:55.248Z,3.34
2022-10-17T21:14:25.758Z,3.28
2022-10-17T21:16:55.208Z,3.22
2022-10-17T21:19:22.795Z,3.31
2022-10-17T21:21:50.914Z,3.22
2022-10-17T21:24:18.752Z,3.10
2022-10-17T21:26:48.090Z,2.98
2022-10-17T21:29:16.624Z,2.82
2022-10-17T21:31:45.726Z,2.80
2022-10-17T21:34:14.514Z,2.65
2022-10-17T21:36:43.257Z,2.58
2022-10-17T21:39:12.732Z,2.65
2022-10-17T21:41:40.973Z,2.62
2022-10-17T21:44:12.843Z,2.51
2022-10-17T21:46:40.942Z,2.53
2022-10-17T21:49:12.139Z,2.59
2022-10-17T21:51:40.499Z,2.67
2022-10-17T21:54:08.678Z,2.63
2022-10-17T21:56:37.264Z,2.55
2022-10-17T21:59:09.462Z,2.54
2022-10-17T22:01:39.692Z,2.44
2022-10-17T22:04:10.395Z,2.47
2022-10-17T22:06:44.307Z,2.59
2022-10-17T22:09:15.081Z,2.67
2022-10-17T22:11:46.613Z,2.60
2022-10-17T22:14:16.763Z,2.59
2022-10-17T22:16:44.756Z,2.53
2022-10-17T22:19:14.890Z,2.42
2022-10-17T22:21:45.565Z,2.49
2022-10-17T22:24:14.935Z,2.52
2022-10-17T22:26:43.269Z,2.48
2022-10-17T22:29:13.191Z,2.43
2022-10-17T22:31:41.912Z,2.47
2022-10-17T22:34:12.368Z,2.50
2022-10-17T22:36:40.576Z,2.50
2022-10-17T22:39:10.457Z,2.54
2022-10-17T22:41:38.044Z,2.54
2022-10-17T22:44:06.422Z,2.41
2022-10-17T22:46:34.041Z,2.44
2022-10-17T22:49:01.605Z,2.36
2022-10-17T22:51:29.252Z,2.36
2022-10-17T22:53:57.214Z,2.34
2022-10-17T22:56:26.187Z,2.34
2022-10-17T22:58:54.177Z,2.27
2022-10-17T23:01:26.115Z,2.17
2022-10-17T23:03:54.322Z,2.20
2022-10-17T23:06:22.500Z,2.32
2022-10-17T23:08:50.375Z,2.03
2022-10-17T23:11:18.675Z,1.89
2022-10-17T23:13:48.658Z,2.11
2022-10-17T23:16:16.218Z,2.16
2022-10-17T23:18:46.166Z,2.12
2022-10-17T23:21:13.941Z,2.21
2022-10-17T23:23:41.748Z,2.27
2022-10-17T23:26:13.220Z,2.30
2022-10-17T23:28:42.694Z,2.33
2022-10-17T23:31:15.109Z,2.09
2022-10-17T23:33:44.608Z,2.03
2022-10-17T23:36:15.094Z,2.06
2022-10-17T23:38:44.457Z,1.84
2022-10-17T23:41:12.893Z,1.95
2022-10-17T23:43:43.528Z,1.82
2022-10-17T23:46:13.114Z,1.85
2022-10-17T23:48:42.788Z,1.93
2022-10-17T23:51:11.248Z,2.06
2022-10-17T23:53:40.538Z,2.04
2022-10-17T23:56:09.468Z,2.00
2022-10-17T23:58:38.468Z,1.88
